Flight Track Log - Related Links

Times and Time Zones

All times are in EST time to prevent confusion due to time zone crossing. See the CPT7773 flight status page for this flight to view local times or setup timezone preferences in your user account.

Time Position Orientation Groundspeed Altitude Reporting Facility
EST Latitude Longitude Course Direction KTS MPH feet Rate Location/Type
Mon 08:13:57 PM 44.5361 -108.9889 121° Southeast 87 100 6,300  Level Salt Lake Center
Mon 08:14:59 PM 44.5372 -108.9417 88° East 118 136 7,000 780 Climbing Salt Lake Center
Mon 08:16:00 PM 44.5358 -108.8889 92° East 126 145 7,900 829 Climbing Salt Lake Center
Mon 08:17:02 PM 44.5319 -108.8364 96° East 131 151 8,700 774 Climbing Salt Lake Center
Mon 08:18:04 PM 44.5078 -108.7883 125° Southeast 143 165 9,500 968 Climbing Salt Lake Center
Mon 08:19:00 PM 44.4005 -108.7457 121° Southeast  Level FlightAware Approximate
Mon 08:19:06 PM 44.4717 -108.7358 134° Southeast 153 176 10,700  Level Salt Lake Center
Mon 08:20:07 PM 44.4431 -108.6908 132° Southeast 155 178 11,100 146 Climbing Salt Lake Center
Mon 08:21:09 PM 44.4103 -108.6397 132° Southeast 163 188 11,000 -48 Descending Salt Lake Center
Mon 08:22:11 PM 44.3742 -108.5853 133° Southeast 175 201 11,000 48 Level Salt Lake Center
Mon 08:23:13 PM 44.3394 -108.5308 132° Southeast 183 211 11,100  Climbing Salt Lake Center
Mon 08:24:14 PM 44.3047 -108.4783 133° Southeast 185 213 11,000 -49 Descending Salt Lake Center
Mon 08:25:16 PM 44.2633 -108.4147 132° Southeast 186 214 11,000  Level Salt Lake Center
Mon 08:26:18 PM 44.2292 -108.3600 131° Southeast 186 214 11,000  Level Salt Lake Center
Mon 08:27:19 PM 44.1939 -108.3069 133° Southeast 186 214 11,000  Level Salt Lake Center
Mon 08:28:21 PM 44.1594 -108.2536 132° Southeast 187 215 11,000 48 Level Salt Lake Center
Mon 08:29:23 PM 44.1242 -108.2008 133° Southeast 187 215 11,100 48 Climbing Salt Lake Center
Mon 08:30:25 PM 44.0897 -108.1483 132° Southeast 186 214 11,100  Level Salt Lake Center
Mon 08:31:26 PM 44.0550 -108.0961 133° Southeast 185 213 11,100 -49 Level Salt Lake Center
Mon 08:32:28 PM 44.0139 -108.0314 131° Southeast 186 214 11,000  Descending Salt Lake Center
Mon 08:33:30 PM 43.9794 -107.9792 132° Southeast 185 213 11,100 48 Climbing Salt Lake Center
Mon 08:34:32 PM 43.9447 -107.9250 132° Southeast 186 214 11,100  Level Salt Lake Center
Mon 08:35:33 PM 43.9153 -107.8658 125° Southeast 186 214 11,100  Level Salt Lake Center
Mon 08:36:35 PM 43.8861 -107.8061 124° Southeast 186 214 11,100  Level Salt Lake Center
Mon 08:37:37 PM 43.8567 -107.7458 124° Southeast 188 216 11,100  Level Salt Lake Center
Mon 08:38:39 PM 43.8194 -107.6764 127° Southeast 188 216 11,100  Level Salt Lake Center
Mon 08:39:40 PM 43.7897 -107.6172 125° Southeast 188 216 11,100  Level Salt Lake Center
Mon 08:40:42 PM 43.7597 -107.5586 125° Southeast 188 216 11,100  Level Salt Lake Center
Mon 08:41:43 PM 43.7283 -107.4997 126° Southeast 189 217 11,100  Level Salt Lake Center
Mon 08:42:45 PM 43.6986 -107.4392 124° Southeast 190 219 11,100  Level Salt Lake Center
Mon 08:43:47 PM 43.6669 -107.3800 126° Southeast 191 220 11,100  Level Salt Lake Center
Mon 08:44:48 PM 43.6367 -107.3208 125° Southeast 191 220 11,100  Level Salt Lake Center
Mon 08:45:50 PM 43.5986 -107.2478 126° Southeast 193 222 11,100  Level Salt Lake Center
Mon 08:46:51 PM 43.5669 -107.1869 126° Southeast 194 223 11,100  Level Salt Lake Center
Mon 08:47:53 PM 43.5361 -107.1261 125° Southeast 194 223 11,100  Level Salt Lake Center
Mon 08:48:54 PM 43.5039 -107.0647 126° Southeast 197 227 11,100  Level Salt Lake Center
Mon 08:49:56 PM 43.4725 -107.0061 126° Southeast 192 221 11,100 -49 Level Salt Lake Center
Mon 08:50:57 PM 43.4403 -106.9467 127° Southeast 194 223 11,000  Descending Salt Lake Center
Mon 08:51:59 PM 43.4072 -106.8847 126° Southeast 191 220 11,100 49 Climbing Salt Lake Center
Mon 08:53:00 PM 43.3683 -106.8236 131° Southeast 192 221 11,100 -146 Level Salt Lake Center
Mon 08:54:02 PM 43.3228 -106.7908 152° Southeast 188 216 10,800 -439 Descending Salt Lake Center
Mon 08:55:03 PM 43.2772 -106.7567 151° Southeast 192 221 10,200 -390 Descending Salt Lake Center
Mon 08:56:05 PM 43.2297 -106.7142 147° Southeast 185 213 10,000 -390 Descending Salt Lake Center
Mon 08:57:06 PM 43.1897 -106.6775 146° Southeast 184 212 9,400 -634 Descending Salt Lake Center
Mon 08:58:08 PM 43.1433 -106.6372 148° Southeast 180 207 8,700 -634 Descending Salt Lake Center
Mon 08:59:09 PM 43.1014 -106.6033 149° Southeast 180 207 8,100 -585 Descending Denver Center
Mon 09:00:11 PM 43.0614 -106.5711 150° Southeast 177 204 7,500 -585 Descending Denver Center
Mon 09:01:12 PM 43.0142 -106.5325 149° Southeast 177 204 6,900 -439 Descending Denver Center
Mon 09:02:14 PM 42.9739 -106.4992 149° Southeast 175 201 6,600 -290 Descending Denver Center

Login

Don't have an account? Register now (free) for customized features, flight alerts, and more!